Time;durP1;ratioP1;P1;durP2;ratioP2;P2;SDS_P1;SDS_P2;PMS_P1;PMS_P2;Temp;Humidity;BMP_temperature;BMP_pressure;BME280_temperature;BME280_humidity;BME280_pressure;Samples;Min_cycle;Max_cycle;Signal;HPM_P1;HPM_P2
2022/10/05 00:01:20;;;;;;;11.98;6.97;;;15.30;99.90;;;;;;4964346;28;20058;-70
2022/10/05 00:03:46;;;;;;;11.25;7.82;;;15.40;99.90;;;;;;4964172;28;20047;-70
2022/10/05 00:06:11;;;;;;;10.52;5.88;;;15.40;99.90;;;;;;4970824;28;20408;-70
2022/10/05 00:08:37;;;;;;;9.00;7.35;;;15.40;99.90;;;;;;4967820;28;20043;-69
2022/10/05 00:11:07;;;;;;;11.13;7.20;;;15.30;99.90;;;;;;4963350;28;20379;-68
2022/10/05 00:13:33;;;;;;;8.85;6.38;;;15.30;99.90;;;;;;4964677;28;20466;-66
2022/10/05 00:16:22;;;;;;;9.23;6.75;;;15.20;99.90;;;;;;4963098;28;20047;-69
2022/10/05 00:18:52;;;;;;;10.48;7.40;;;15.30;99.90;;;;;;4964096;28;20086;-70
2022/10/05 00:21:24;;;;;;;10.20;7.00;;;15.30;99.90;;;;;;4963421;28;20047;-67
2022/10/05 00:23:50;;;;;;;11.88;5.70;;;15.20;99.90;;;;;;4964364;28;20034;-70
2022/10/05 00:26:20;;;;;;;9.18;6.82;;;15.30;99.90;;;;;;4963023;28;20258;-69
2022/10/05 00:28:46;;;;;;;9.35;7.35;;;15.30;99.90;;;;;;4964137;28;20081;-70
2022/10/05 00:31:20;;;;;;;11.20;7.07;;;15.20;99.90;;;;;;4964200;28;20086;-71
2022/10/05 00:33:46;;;;;;;9.65;7.20;;;15.20;99.90;;;;;;4964173;28;20042;-71
2022/10/05 00:36:12;;;;;;;10.25;7.30;;;15.20;99.90;;;;;;4963330;28;20078;-66
2022/10/05 00:38:38;;;;;;;9.57;6.95;;;15.10;99.90;;;;;;4964119;28;20505;-70
2022/10/05 00:41:04;;;;;;;9.68;6.85;;;15.20;99.90;;;;;;4963160;28;20053;-67
2022/10/05 00:44:17;;;;;;;11.02;6.70;;;15.20;99.90;;;;;;4964248;28;20374;-69
2022/10/05 00:47:05;;;;;;;8.25;6.20;;;15.20;99.90;;;;;;4963769;28;20039;-70
2022/10/05 00:50:00;;;;;;;8.57;6.65;;;15.20;99.90;;;;;;4964097;28;20146;-66
2022/10/05 00:52:35;;;;;;;9.60;6.85;;;15.20;99.90;;;;;;4964701;28;20042;-69
2022/10/05 00:55:07;;;;;;;;;;;15.20;99.90;;;;;;4964383;28;20556;-67
2022/10/05 00:58:06;;;;;;;9.05;5.38;;;15.20;99.90;;;;;;4964254;28;20300;-70
2022/10/05 01:00:49;;;;;;;10.93;6.40;;;15.20;99.90;;;;;;4966973;28;20042;-70
2022/10/05 01:03:33;;;;;;;11.70;6.78;;;15.20;99.90;;;;;;4967229;28;20082;-70
2022/10/05 01:06:18;;;;;;;9.85;6.10;;;15.20;99.90;;;;;;4972017;28;20051;-66
2022/10/05 01:08:50;;;;;;;7.68;6.53;;;15.20;99.90;;;;;;4983787;28;20042;-68
2022/10/05 01:11:26;;;;;;;7.57;6.15;;;15.20;99.90;;;;;;4984682;28;20050;-68
2022/10/05 01:14:17;;;;;;;8.40;6.47;;;15.30;99.90;;;;;;4986738;28;20122;-69
2022/10/05 01:17:04;;;;;;;9.32;5.88;;;15.20;99.90;;;;;;4956698;28;20145;-66
2022/10/05 01:19:51;;;;;;;7.13;4.32;;;15.20;99.90;;;;;;4968296;28;20066;-69
2022/10/05 01:22:32;;;;;;;8.98;5.15;;;15.20;99.90;;;;;;4968277;28;20579;-70
2022/10/05 01:25:00;;;;;;;9.05;6.18;;;15.20;99.90;;;;;;4986277;28;20049;-70
2022/10/05 01:27:41;;;;;;;9.10;5.97;;;15.10;99.90;;;;;;4985540;28;20054;-69
2022/10/05 01:30:16;;;;;;;7.28;5.43;;;15.20;99.90;;;;;;4985810;28;20046;-67
2022/10/05 01:32:47;;;;;;;8.30;5.57;;;15.10;99.90;;;;;;4967923;28;20101;-68
2022/10/05 01:35:46;;;;;;;8.40;5.75;;;15.20;99.90;;;;;;4985304;28;20042;-65
2022/10/05 01:38:30;;;;;;;10.15;5.45;;;15.10;99.90;;;;;;4985635;28;20050;-67
2022/10/05 01:41:13;;;;;;;7.78;5.50;;;15.20;99.90;;;;;;4985505;28;20046;-69
2022/10/05 01:44:06;;;;;;;8.80;5.82;;;15.10;99.90;;;;;;4985818;28;20050;-68
2022/10/05 01:46:37;;;;;;;6.95;5.05;;;15.20;99.90;;;;;;4967725;28;20057;-67
2022/10/05 01:49:06;;;;;;;6.35;5.10;;;15.10;99.90;;;;;;4985838;28;20042;-70
2022/10/05 01:51:47;;;;;;;7.15;4.85;;;15.10;99.90;;;;;;4985811;28;20057;-66
2022/10/05 01:54:48;;;;;;;8.40;5.80;;;15.20;99.90;;;;;;4968026;28;20077;-70
2022/10/05 01:57:38;;;;;;;7.78;5.97;;;15.20;99.90;;;;;;4984246;28;20061;-66
2022/10/05 02:00:16;;;;;;;8.82;5.65;;;15.10;99.90;;;;;;4985966;28;20045;-68
2022/10/05 02:03:06;;;;;;;7.38;5.40;;;15.10;99.90;;;;;;4986008;28;20077;-67
2022/10/05 02:05:39;;;;;;;11.35;5.70;;;15.10;99.90;;;;;;4979487;28;20047;-68
2022/10/05 02:08:21;;;;;;;10.93;5.88;;;15.10;99.90;;;;;;4972224;28;20091;-69
2022/10/05 02:10:54;;;;;;;8.18;5.90;;;15.20;99.90;;;;;;4982812;28;20112;-69
2022/10/05 02:13:31;;;;;;;8.38;5.32;;;15.10;99.90;;;;;;4984910;28;20054;-69
2022/10/05 02:16:06;;;;;;;8.23;6.30;;;15.10;99.90;;;;;;4986674;28;20105;-70
2022/10/05 02:18:39;;;;;;;9.10;5.97;;;15.10;99.90;;;;;;4966744;28;20042;-70
2022/10/05 02:21:07;;;;;;;8.93;6.18;;;15.00;99.90;;;;;;4984929;28;20054;-70
2022/10/05 02:23:36;;;;;;;7.18;4.72;;;15.00;99.90;;;;;;4985978;28;20042;-70
2022/10/05 02:26:04;;;;;;;9.90;6.40;;;15.00;99.90;;;;;;4966550;28;20703;-68
2022/10/05 02:28:40;;;;;;;8.98;6.70;;;15.00;99.90;;;;;;4986039;28;20042;-69
2022/10/05 02:31:16;;;;;;;10.18;6.38;;;15.00;99.90;;;;;;4984297;28;20137;-69
2022/10/05 02:33:42;;;;;;;7.80;6.05;;;15.00;99.90;;;;;;4984890;28;20104;-69
2022/10/05 02:36:13;;;;;;;7.90;5.88;;;14.90;99.90;;;;;;4984842;28;20039;-68
2022/10/05 02:39:08;;;;;;;10.13;6.75;;;14.90;99.90;;;;;;4984485;28;20061;-66
2022/10/05 02:41:44;;;;;;;9.43;6.90;;;14.90;99.90;;;;;;4975811;28;20072;-70
2022/10/05 02:44:25;;;;;;;8.10;6.63;;;14.90;99.90;;;;;;4984378;28;20489;-69
2022/10/05 02:47:28;;;;;;;9.20;6.70;;;14.90;99.90;;;;;;4984906;28;20058;-70
2022/10/05 02:50:23;;;;;;;11.27;7.35;;;14.80;99.90;;;;;;4984401;28;20068;-70
2022/10/05 02:52:58;;;;;;;6.80;4.65;;;14.90;99.90;;;;;;4984987;28;20039;-69
2022/10/05 02:56:05;;;;;;;9.50;6.78;;;14.90;99.90;;;;;;4967129;28;20069;-69
2022/10/05 02:59:10;;;;;;;9.82;7.00;;;14.90;99.90;;;;;;4958657;28;20062;-68
2022/10/05 03:01:53;;;;;;;15.88;8.02;;;14.80;99.90;;;;;;4920297;28;20559;-69
2022/10/05 03:04:49;;;;;;;11.15;8.18;;;14.80;99.90;;;;;;4983367;28;20042;-69
2022/10/05 03:07:28;;;;;;;8.38;5.25;;;14.80;99.90;;;;;;4960109;28;20050;-69
2022/10/05 03:09:54;;;;;;;10.10;7.95;;;14.90;99.90;;;;;;4965559;28;20043;-70
2022/10/05 03:12:48;;;;;;;10.52;8.23;;;14.90;99.90;;;;;;4962923;28;20113;-69
2022/10/05 03:15:39;;;;;;;12.82;8.52;;;14.90;99.90;;;;;;4962237;28;20058;-70
2022/10/05 03:18:35;;;;;;;10.23;7.65;;;14.80;99.90;;;;;;4964236;28;20125;-67
2022/10/05 03:21:40;;;;;;;12.77;8.30;;;14.80;99.90;;;;;;4964645;28;20053;-67
2022/10/05 03:24:22;;;;;;;8.07;6.05;;;14.90;99.90;;;;;;4963982;28;20490;-67
2022/10/05 03:26:57;;;;;;;11.25;7.30;;;14.80;99.90;;;;;;4947091;28;20105;-69
2022/10/05 03:29:59;;;;;;;10.82;6.97;;;14.90;99.90;;;;;;4964016;28;20206;-68
2022/10/05 03:32:38;;;;;;;13.00;7.88;;;14.80;99.90;;;;;;4963418;28;20114;-69
2022/10/05 03:35:04;;;;;;;9.73;6.78;;;14.90;99.90;;;;;;4964450;28;20524;-68
2022/10/05 03:37:59;;;;;;;10.77;6.88;;;14.90;99.90;;;;;;4965552;28;20093;-68
2022/10/05 03:40:33;;;;;;;10.18;6.97;;;15.00;99.90;;;;;;4952968;28;20839;-66
2022/10/05 03:43:34;;;;;;;12.82;7.40;;;14.80;99.90;;;;;;4965698;28;20104;-69
2022/10/05 03:46:11;;;;;;;8.80;6.85;;;14.90;99.90;;;;;;4931226;28;20094;-69
2022/10/05 03:48:50;;;;;;;10.48;6.90;;;14.80;99.90;;;;;;4964296;28;20046;-69
2022/10/05 03:51:47;;;;;;;10.73;7.38;;;14.90;99.90;;;;;;4963353;28;20042;-67
2022/10/05 03:54:28;;;;;;;9.98;6.97;;;14.80;99.90;;;;;;4963275;28;20729;-67
2022/10/05 03:57:15;;;;;;;9.10;7.15;;;14.90;99.90;;;;;;4963576;28;20520;-69
2022/10/05 04:00:08;;;;;;;11.27;6.18;;;14.80;99.90;;;;;;4962682;28;20058;-70
2022/10/05 04:02:44;;;;;;;11.38;6.60;;;14.80;99.90;;;;;;4964868;28;20117;-70
2022/10/05 04:05:09;;;;;;;9.63;6.70;;;14.80;99.90;;;;;;4966153;28;20030;-68
2022/10/05 04:08:08;;;;;;;8.70;6.43;;;14.90;99.90;;;;;;4973264;28;20101;-70
2022/10/05 04:10:49;;;;;;;7.88;6.63;;;14.70;99.90;;;;;;4963384;28;20078;-68
2022/10/05 04:13:41;;;;;;;9.88;6.38;;;14.90;99.90;;;;;;4964095;28;20070;-71
2022/10/05 04:16:21;;;;;;;9.95;6.15;;;14.80;99.90;;;;;;4964767;28;20501;-71
2022/10/05 04:18:53;;;;;;;12.05;6.43;;;14.80;99.90;;;;;;4978195;28;20086;-70
2022/10/05 04:21:28;;;;;;;8.75;6.50;;;14.80;99.90;;;;;;4965668;28;20054;-69
2022/10/05 04:24:03;;;;;;;;;;;14.80;99.90;;;;;;4984032;28;20378;-67
2022/10/05 04:26:37;;;;;;;10.65;6.80;;;14.80;99.90;;;;;;4964792;28;20012;-67
2022/10/05 04:29:27;;;;;;;9.20;6.85;;;14.70;99.90;;;;;;4983686;28;20042;-70
2022/10/05 04:32:08;;;;;;;7.93;6.68;;;14.80;99.90;;;;;;4966776;28;20104;-70
2022/10/05 04:34:42;;;;;;;8.50;5.15;;;14.80;99.90;;;;;;4987291;28;20129;-69
2022/10/05 04:37:18;;;;;;;8.32;6.40;;;14.80;99.90;;;;;;4987005;28;20413;-70
2022/10/05 04:39:56;;;;;;;9.40;6.47;;;14.70;99.90;;;;;;4987386;28;20057;-70
2022/10/05 04:42:27;;;;;;;11.77;7.10;;;14.80;99.90;;;;;;4986278;28;20054;-71
2022/10/05 04:45:30;;;;;;;11.43;6.78;;;14.80;99.90;;;;;;4986844;28;20081;-70
2022/10/05 04:48:08;;;;;;;9.65;6.95;;;14.70;99.90;;;;;;4952966;28;20058;-67
2022/10/05 04:50:48;;;;;;;10.15;7.43;;;14.70;99.90;;;;;;4970096;28;20054;-70
2022/10/05 04:53:20;;;;;;;9.95;7.15;;;14.70;99.90;;;;;;4986122;28;20065;-69
2022/10/05 04:55:57;;;;;;;10.23;7.13;;;14.70;99.90;;;;;;4985859;28;20042;-67
2022/10/05 04:58:51;;;;;;;9.98;7.38;;;14.70;99.90;;;;;;4985671;28;20046;-65
2022/10/05 05:01:29;;;;;;;13.77;7.93;;;14.60;99.90;;;;;;4986689;28;20043;-70
2022/10/05 05:04:38;;;;;;;9.13;5.93;;;14.60;99.90;;;;;;4987079;28;20053;-69
2022/10/05 05:07:15;;;;;;;9.40;6.47;;;14.60;99.90;;;;;;4967920;28;20053;-66
2022/10/05 05:10:04;;;;;;;9.90;7.60;;;14.70;99.90;;;;;;4986834;28;20050;-71
2022/10/05 05:13:08;;;;;;;9.85;8.50;;;14.50;99.90;;;;;;4987233;28;20049;-70
2022/10/05 05:15:51;;;;;;;11.93;8.20;;;14.50;99.90;;;;;;4981272;28;20398;-70
2022/10/05 05:18:33;;;;;;;10.10;7.88;;;14.60;99.90;;;;;;4985975;28;20038;-70
2022/10/05 05:21:31;;;;;;;12.00;7.60;;;14.60;99.90;;;;;;4986823;28;20042;-67
2022/10/05 05:24:34;;;;;;;11.40;8.52;;;14.50;99.90;;;;;;4986918;28;20043;-70
2022/10/05 05:27:06;;;;;;;11.40;7.03;;;14.50;99.90;;;;;;4968366;28;20060;-66
2022/10/05 05:29:57;;;;;;;11.88;7.75;;;14.50;99.90;;;;;;4986628;28;20039;-68
2022/10/05 05:32:28;;;;;;;10.52;7.88;;;14.50;99.90;;;;;;4968830;28;20054;-69
2022/10/05 05:35:13;;;;;;;11.60;8.88;;;14.50;99.90;;;;;;4969290;28;20097;-69
2022/10/05 05:37:48;;;;;;;11.75;8.95;;;14.60;99.90;;;;;;4986294;28;20105;-69
2022/10/05 05:40:30;;;;;;;11.25;8.50;;;14.50;99.90;;;;;;4985703;28;20638;-70
2022/10/05 05:43:05;;;;;;;13.50;8.77;;;14.60;99.90;;;;;;4986660;28;20057;-69
2022/10/05 05:45:40;;;;;;;11.25;7.68;;;14.50;99.90;;;;;;4986218;28;20045;-69
2022/10/05 05:48:17;;;;;;;10.60;8.57;;;14.50;99.90;;;;;;4985198;28;20081;-67
2022/10/05 05:50:59;;;;;;;10.02;8.15;;;14.50;99.90;;;;;;4985391;28;20050;-69
2022/10/05 05:53:34;;;;;;;11.45;8.25;;;14.50;99.90;;;;;;4985805;28;20042;-66
2022/10/05 05:56:11;;;;;;;13.43;9.35;;;14.50;99.90;;;;;;4984894;28;20058;-67
2022/10/05 05:58:40;;;;;;;12.88;8.52;;;14.50;99.90;;;;;;4968758;28;20047;-68
2022/10/05 06:01:08;;;;;;;12.07;8.55;;;14.50;99.90;;;;;;4968142;28;20043;-66
2022/10/05 06:03:42;;;;;;;11.30;8.43;;;14.50;99.90;;;;;;4985995;28;20049;-69
2022/10/05 06:06:15;;;;;;;12.30;7.00;;;14.50;99.90;;;;;;4978599;28;20035;-70
2022/10/05 06:08:50;;;;;;;11.98;7.03;;;14.40;99.90;;;;;;4968822;28;20349;-65
2022/10/05 06:11:24;;;;;;;10.10;7.43;;;14.40;99.90;;;;;;4965479;28;20046;-69
2022/10/05 06:13:50;;;;;;;12.00;9.45;;;14.50;99.90;;;;;;4966352;28;20061;-67
2022/10/05 06:16:27;;;;;;;13.57;8.90;;;14.40;99.90;;;;;;4965866;28;20088;-69
2022/10/05 06:19:14;;;;;;;12.02;9.40;;;14.30;99.90;;;;;;4966428;28;20039;-68
2022/10/05 06:22:06;;;;;;;13.82;9.88;;;14.40;99.90;;;;;;4965990;28;20050;-68
2022/10/05 06:24:43;;;;;;;10.05;8.25;;;14.40;99.90;;;;;;4966098;28;20050;-66
2022/10/05 06:27:42;;;;;;;14.32;9.75;;;14.40;99.90;;;;;;4948546;28;20055;-68
2022/10/05 06:30:14;;;;;;;12.38;8.27;;;14.40;99.90;;;;;;4948329;28;20066;-70
2022/10/05 06:33:03;;;;;;;14.02;10.60;;;14.40;99.90;;;;;;4966029;28;20114;-68
2022/10/05 06:35:50;;;;;;;14.00;9.75;;;14.40;99.90;;;;;;4948158;28;20588;-68
2022/10/05 06:38:49;;;;;;;14.95;9.75;;;14.30;99.90;;;;;;4966028;28;20089;-68
2022/10/05 06:41:31;;;;;;;11.85;10.20;;;14.30;99.90;;;;;;4964699;28;20058;-69
2022/10/05 06:44:04;;;;;;;12.43;10.38;;;14.30;99.90;;;;;;4965285;28;20039;-69
2022/10/05 06:46:42;;;;;;;13.60;10.10;;;14.30;99.90;;;;;;4948773;28;20057;-67
2022/10/05 06:49:25;;;;;;;12.80;9.35;;;14.30;99.90;;;;;;4965414;28;20291;-66
2022/10/05 06:52:18;;;;;;;11.32;7.20;;;14.40;99.90;;;;;;4984170;28;20050;-69
2022/10/05 06:54:44;;;;;;;15.27;9.43;;;14.30;99.90;;;;;;4966108;28;20058;-69
2022/10/05 06:57:29;;;;;;;13.27;10.15;;;14.30;99.90;;;;;;4984645;28;20486;-66
2022/10/05 06:59:58;;;;;;;11.07;8.23;;;14.40;99.90;;;;;;4967031;28;20043;-69
2022/10/05 07:03:02;;;;;;;12.85;10.18;;;14.40;99.90;;;;;;4984045;28;20050;-70
2022/10/05 07:05:55;;;;;;;13.25;9.23;;;14.40;99.90;;;;;;4979599;28;20061;-69
2022/10/05 07:08:54;;;;;;;13.95;8.88;;;14.40;99.90;;;;;;4978320;28;20096;-68
2022/10/05 07:11:49;;;;;;;12.25;8.10;;;14.50;99.90;;;;;;4968941;28;20054;-69
2022/10/05 07:14:26;;;;;;;11.25;8.25;;;14.50;99.90;;;;;;4914314;28;20051;-69
2022/10/05 07:17:14;;;;;;;11.10;8.88;;;14.50;99.90;;;;;;4970178;28;20058;-69
2022/10/05 07:20:02;;;;;;;10.95;9.63;;;14.50;99.90;;;;;;4963600;28;20050;-67
2022/10/05 07:22:54;;;;;;;11.43;8.80;;;14.50;99.90;;;;;;4969657;28;20173;-70
2022/10/05 07:25:38;;;;;;;10.95;9.60;;;14.50;99.90;;;;;;4965090;28;20054;-69
2022/10/05 07:28:27;;;;;;;11.50;9.03;;;14.50;99.90;;;;;;4966032;28;20211;-70
2022/10/05 07:31:04;;;;;;;10.65;9.05;;;14.50;99.90;;;;;;4966440;28;20053;-69
2022/10/05 07:34:05;;;;;;;12.05;9.23;;;14.60;99.90;;;;;;4966416;28;20137;-70
2022/10/05 07:40:10;;;;;;;10.05;8.82;;;14.60;99.90;;;;;;4978584;28;20116;-66
2022/10/05 07:42:47;;;;;;;11.63;9.52;;;14.70;99.90;;;;;;4982913;28;20100;-69
2022/10/05 07:45:31;;;;;;;11.82;6.65;;;14.70;99.90;;;;;;4965719;28;20081;-69
2022/10/05 07:48:13;;;;;;;9.48;7.18;;;14.70;99.90;;;;;;4982973;28;20529;-70
2022/10/05 07:50:51;;;;;;;11.35;8.18;;;14.60;99.90;;;;;;4966548;28;20540;-70
2022/10/05 07:53:27;;;;;;;10.43;6.85;;;14.70;99.90;;;;;;4982632;28;20046;-68
2022/10/05 07:55:59;;;;;;;10.82;8.77;;;14.70;99.90;;;;;;4981919;28;20456;-68
2022/10/05 07:58:39;;;;;;;10.13;8.45;;;14.60;99.90;;;;;;4983330;28;20049;-68
2022/10/05 08:01:07;;;;;;;12.48;9.40;;;14.60;99.90;;;;;;4983603;28;20074;-67
2022/10/05 08:03:43;;;;;;;11.70;9.10;;;14.60;99.90;;;;;;4966966;28;20058;-66
2022/10/05 08:06:34;;;;;;;11.30;9.05;;;14.70;99.90;;;;;;4976860;28;20073;-67
2022/10/05 08:09:30;;;;;;;11.50;9.18;;;14.70;99.90;;;;;;4968206;28;20043;-70
2022/10/05 08:12:21;;;;;;;12.38;8.55;;;14.70;99.90;;;;;;4970890;28;20061;-66
2022/10/05 08:14:57;;;;;;;11.13;9.48;;;14.70;99.90;;;;;;4967755;28;20051;-67
2022/10/05 08:18:03;;;;;;;9.30;7.55;;;14.70;99.90;;;;;;4967974;28;20058;-68
2022/10/05 08:20:46;;;;;;;14.48;8.65;;;14.70;99.90;;;;;;4966406;28;20054;-67
2022/10/05 08:23:14;;;;;;;9.55;5.30;;;14.80;99.90;;;;;;4966854;28;20069;-70
2022/10/05 08:26:05;;;;;;;11.95;6.30;;;14.80;99.90;;;;;;4967432;28;20058;-68
2022/10/05 08:28:49;;;;;;;11.80;8.23;;;14.90;99.90;;;;;;4953043;28;20053;-70
2022/10/05 08:31:25;;;;;;;10.05;7.25;;;15.00;99.90;;;;;;4951031;28;20051;-70
2022/10/05 08:34:03;;;;;;;11.70;8.65;;;15.00;99.90;;;;;;4950410;28;20050;-70
2022/10/05 08:36:38;;;;;;;11.30;7.82;;;15.00;99.90;;;;;;4976989;28;20062;-68
2022/10/05 08:39:11;;;;;;;;;;;15.10;99.90;;;;;;4970778;28;20652;-66
2022/10/05 08:41:46;;;;;;;10.73;8.25;;;15.00;99.90;;;;;;4966877;28;20004;-68
2022/10/05 08:44:35;;;;;;;11.05;7.50;;;15.10;99.90;;;;;;4966806;28;20051;-68
2022/10/05 08:47:18;;;;;;;9.20;6.95;;;15.00;99.90;;;;;;4975972;28;20134;-66
2022/10/05 08:49:53;;;;;;;10.65;7.18;;;15.10;99.90;;;;;;4986807;28;20042;-62
2022/10/05 08:52:37;;;;;;;11.77;8.50;;;15.10;99.90;;;;;;4986444;28;20602;-63
2022/10/05 08:55:08;;;;;;;9.70;7.60;;;15.20;99.90;;;;;;4968371;28;20043;-65
2022/10/05 08:58:12;;;;;;;8.45;5.97;;;15.30;99.90;;;;;;4987165;28;20581;-66
2022/10/05 09:01:04;;;;;;;8.27;6.05;;;15.40;99.90;;;;;;4987200;28;20049;-65
2022/10/05 09:03:52;;;;;;;9.57;7.53;;;15.30;99.90;;;;;;4970275;28;20070;-66
2022/10/05 09:06:55;;;;;;;11.35;7.70;;;15.50;99.90;;;;;;4980767;28;20050;-66
2022/10/05 09:09:38;;;;;;;9.13;7.72;;;15.60;99.90;;;;;;4966375;28;20635;-66
2022/10/05 09:12:25;;;;;;;9.88;6.18;;;15.70;99.90;;;;;;4950033;28;20105;-66
2022/10/05 09:15:13;;;;;;;8.48;6.18;;;15.70;99.90;;;;;;4967544;28;20391;-65
2022/10/05 09:18:00;;;;;;;9.85;5.15;;;15.80;99.90;;;;;;4966104;28;20082;-66
2022/10/05 09:20:38;;;;;;;7.47;5.20;;;16.00;99.90;;;;;;4967243;28;20079;-65
2022/10/05 09:23:38;;;;;;;8.30;5.43;;;16.00;99.90;;;;;;4966615;28;20057;-66
2022/10/05 09:26:08;;;;;;;6.85;5.15;;;16.10;99.90;;;;;;4965433;28;20104;-66
2022/10/05 09:28:56;;;;;;;7.88;5.93;;;16.00;99.90;;;;;;4949419;28;20090;-66
2022/10/05 09:32:14;;;;;;;7.22;5.20;;;16.10;99.90;;;;;;4967175;28;20043;-66
2022/10/05 09:34:50;;;;;;;8.38;5.13;;;16.10;99.90;;;;;;4906004;29;20087;-66
2022/10/05 09:37:40;;;;;;;6.88;4.82;;;15.90;99.90;;;;;;4958158;28;20073;-66
2022/10/05 09:40:12;;;;;;;6.70;5.57;;;15.90;99.90;;;;;;4963928;28;20117;-66
2022/10/05 09:42:58;;;;;;;7.35;5.45;;;16.00;99.90;;;;;;4949886;28;20042;-66
2022/10/05 09:46:05;;;;;;;5.95;3.90;;;16.00;99.90;;;;;;4966347;28;20458;-65
2022/10/05 09:48:56;;;;;;;6.88;5.53;;;15.90;99.90;;;;;;4938359;28;20050;-66
2022/10/05 09:52:05;;;;;;;9.25;4.68;;;15.90;99.90;;;;;;4966442;28;20114;-65
2022/10/05 09:55:05;;;;;;;6.72;4.47;;;16.00;99.90;;;;;;4949334;28;20058;-66
2022/10/05 09:57:31;;;;;;;8.65;4.25;;;16.00;99.90;;;;;;4966115;28;20051;-65
2022/10/05 10:00:12;;;;;;;5.82;4.75;;;16.00;99.90;;;;;;4950515;28;20050;-65
2022/10/05 10:02:44;;;;;;;8.45;4.15;;;16.00;99.90;;;;;;4949356;28;20174;-66
2022/10/05 10:05:31;;;;;;;8.20;4.80;;;16.10;99.90;;;;;;4968974;28;20484;-65
2022/10/05 10:08:07;;;;;;;5.95;4.55;;;16.10;99.90;;;;;;4978194;28;20046;-65
2022/10/05 10:11:00;;;;;;;7.47;4.25;;;16.10;99.90;;;;;;4985252;28;20046;-66
2022/10/05 10:13:38;;;;;;;5.80;4.47;;;16.10;99.90;;;;;;4986118;28;20051;-65
2022/10/05 10:16:28;;;;;;;7.63;4.43;;;16.10;99.90;;;;;;4968154;28;20396;-66
2022/10/05 10:19:02;;;;;;;6.28;3.30;;;16.20;99.90;;;;;;4985892;28;20053;-65
2022/10/05 10:21:38;;;;;;;5.57;4.00;;;16.20;99.90;;;;;;4985966;28;20066;-66
2022/10/05 10:24:21;;;;;;;5.03;3.75;;;16.10;99.90;;;;;;4984811;28;20054;-66
2022/10/05 10:27:15;;;;;;;4.40;3.63;;;16.20;99.90;;;;;;4986083;28;20043;-66
2022/10/05 10:29:59;;;;;;;6.75;3.70;;;16.30;99.90;;;;;;4985524;28;20082;-66
2022/10/05 10:32:40;;;;;;;10.80;3.80;;;16.20;99.90;;;;;;4985108;28;20043;-65
2022/10/05 10:35:33;;;;;;;4.75;3.22;;;16.10;99.90;;;;;;4967594;28;20056;-66
2022/10/05 10:38:14;;;;;;;5.50;3.45;;;16.20;99.90;;;;;;4967823;28;20501;-64
2022/10/05 10:41:13;;;;;;;5.20;4.15;;;16.30;99.90;;;;;;4967726;28;20082;-65
2022/10/05 10:43:45;;;;;;;4.97;3.40;;;16.40;99.90;;;;;;4967818;28;20096;-64
2022/10/05 10:46:45;;;;;;;6.85;3.88;;;16.30;99.90;;;;;;4966611;28;20057;-65
2022/10/05 10:49:50;;;;;;;5.10;3.33;;;16.30;99.90;;;;;;4985275;28;20042;-65
2022/10/05 10:52:52;;;;;;;6.15;4.90;;;16.20;99.90;;;;;;4985213;28;20389;-65
2022/10/05 10:55:28;;;;;;;5.55;3.97;;;16.30;99.90;;;;;;4983946;28;20050;-65
2022/10/05 10:58:22;;;;;;;6.28;4.15;;;16.10;99.90;;;;;;4984159;28;20046;-65
2022/10/05 11:01:05;;;;;;;6.45;4.75;;;16.10;99.90;;;;;;4985227;28;20043;-65
2022/10/05 11:03:45;;;;;;;7.03;4.32;;;16.20;99.90;;;;;;4984733;28;20077;-64
2022/10/05 11:06:31;;;;;;;6.13;4.00;;;16.20;99.90;;;;;;4978319;28;20039;-65
2022/10/05 11:08:57;;;;;;;6.15;4.30;;;16.10;99.90;;;;;;4965107;28;20525;-65
2022/10/05 11:11:52;;;;;;;4.97;4.47;;;16.10;99.90;;;;;;4964801;28;20133;-65
2022/10/05 11:14:39;;;;;;;6.50;5.00;;;16.20;99.90;;;;;;4964917;28;20061;-64
2022/10/05 11:17:19;;;;;;;9.18;3.63;;;16.20;99.90;;;;;;4964115;28;20066;-65
2022/10/05 11:20:08;;;;;;;5.00;3.50;;;16.20;99.90;;;;;;4964906;28;20051;-65
2022/10/05 11:22:52;;;;;;;7.88;4.45;;;16.20;99.90;;;;;;4946938;28;20150;-65
2022/10/05 11:25:47;;;;;;;6.55;5.15;;;16.20;99.90;;;;;;4963343;28;20498;-65
2022/10/05 11:28:33;;;;;;;5.03;3.35;;;16.20;99.90;;;;;;4972796;28;20061;-64
2022/10/05 11:31:17;;;;;;;6.80;4.90;;;16.20;99.90;;;;;;4982957;28;20050;-64
2022/10/05 11:34:05;;;;;;;4.50;4.05;;;16.30;99.90;;;;;;4952763;28;20038;-64
2022/10/05 11:37:02;;;;;;;5.60;4.65;;;16.40;99.90;;;;;;4964673;28;20105;-64
2022/10/05 11:39:29;;;;;;;7.57;4.70;;;16.40;99.90;;;;;;4946487;28;20138;-64
2022/10/05 11:42:28;;;;;;;6.25;4.13;;;16.40;99.90;;;;;;4984175;28;20671;-62
2022/10/05 11:45:20;;;;;;;5.72;4.32;;;16.50;99.90;;;;;;4976495;28;20050;-67
2022/10/05 11:47:46;;;;;;;4.57;3.92;;;16.40;99.90;;;;;;4964664;28;20053;-64
2022/10/05 11:50:17;;;;;;;6.97;4.50;;;16.50;99.90;;;;;;4963311;28;20050;-67
2022/10/05 11:53:13;;;;;;;5.88;3.47;;;16.40;99.90;;;;;;4964498;28;20045;-65
2022/10/05 11:56:06;;;;;;;4.70;3.55;;;16.40;99.90;;;;;;4946017;28;20052;-65
2022/10/05 11:58:47;;;;;;;5.35;4.65;;;16.50;99.90;;;;;;4944766;28;20141;-65
2022/10/05 12:01:40;;;;;;;5.65;4.45;;;16.60;99.90;;;;;;4964103;28;20121;-64
2022/10/05 12:04:28;;;;;;;6.55;4.65;;;16.60;99.90;;;;;;4957472;28;20066;-67
2022/10/05 12:07:02;;;;;;;4.80;3.53;;;16.50;99.90;;;;;;4975225;28;20133;-65
2022/10/05 12:10:13;;;;;;;4.28;3.28;;;16.60;99.90;;;;;;4964288;28;20109;-65
2022/10/05 12:13:08;;;;;;;4.70;4.07;;;16.50;99.90;;;;;;4964334;28;20061;-65
2022/10/05 12:15:49;;;;;;;5.75;3.13;;;16.50;99.90;;;;;;4958013;28;20054;-64
2022/10/05 12:18:38;;;;;;;4.60;3.40;;;16.50;99.90;;;;;;4964531;28;20635;-61
2022/10/05 12:21:06;;;;;;;5.45;3.35;;;16.50;99.90;;;;;;4955991;28;20070;-58
2022/10/05 12:24:17;;;;;;;4.55;3.78;;;16.60;99.90;;;;;;4963991;28;20099;-66
2022/10/05 12:27:15;;;;;;;9.93;3.10;;;16.50;99.90;;;;;;4904615;29;20083;-67
2022/10/05 12:30:06;;;;;;;4.40;3.10;;;16.50;99.90;;;;;;4904050;29;20052;-64
2022/10/05 12:32:47;;;;;;;6.00;3.25;;;16.60;99.90;;;;;;4958814;28;20532;-64
2022/10/05 12:35:21;;;;;;;7.30;2.50;;;16.50;99.90;;;;;;4964217;28;20046;-64
2022/10/05 12:37:57;;;;;;;5.20;3.08;;;16.60;99.90;;;;;;4964650;28;20054;-64
2022/10/05 12:40:46;;;;;;;5.00;3.25;;;16.50;99.90;;;;;;4946611;28;20054;-66
2022/10/05 12:43:27;;;;;;;5.25;3.33;;;16.50;99.90;;;;;;4956422;28;20526;-66
2022/10/05 12:46:16;;;;;;;5.55;3.15;;;16.50;99.90;;;;;;4947186;28;20112;-64
2022/10/05 12:49:06;;;;;;;4.78;2.40;;;16.60;99.90;;;;;;4964401;28;20051;-66
2022/10/05 12:51:40;;;;;;;5.55;3.33;;;16.50;99.90;;;;;;4964727;28;20608;-67
2022/10/05 12:54:12;;;;;;;;;;;16.50;99.90;;;;;;4966134;28;20050;-64
2022/10/05 12:56:46;;;;;;;5.07;3.50;;;16.50;99.90;;;;;;4967476;28;20065;-64
2022/10/05 12:59:21;;;;;;;5.28;2.90;;;16.50;99.90;;;;;;4967358;28;20043;-64
2022/10/05 13:02:02;;;;;;;4.43;2.95;;;16.50;99.90;;;;;;4967088;28;20050;-64
2022/10/05 13:04:39;;;;;;;5.65;3.40;;;16.50;99.90;;;;;;4967810;28;20121;-64
2022/10/05 13:07:43;;;;;;;7.13;3.60;;;16.50;99.90;;;;;;4977093;28;20093;-64
2022/10/05 13:10:21;;;;;;;6.70;3.78;;;16.50;99.90;;;;;;4931642;28;20449;-67
2022/10/05 13:12:49;;;;;;;5.05;3.75;;;16.50;99.90;;;;;;4969665;28;20062;-66
2022/10/05 13:15:30;;;;;;;5.55;3.80;;;16.50;99.90;;;;;;4986518;28;20054;-66
2022/10/05 13:18:09;;;;;;;4.00;2.30;;;16.50;99.90;;;;;;4987383;28;20070;-66
2022/10/05 13:20:46;;;;;;;7.55;3.92;;;16.50;99.90;;;;;;4986778;28;20043;-64
2022/10/05 13:23:21;;;;;;;5.72;3.92;;;16.50;99.90;;;;;;4986432;28;20046;-67
2022/10/05 13:25:47;;;;;;;;;;;16.50;99.90;;;;;;4986207;28;20489;-64
2022/10/05 13:28:18;;;;;;;8.52;4.00;;;16.60;99.90;;;;;;4985589;28;19921;-64
2022/10/05 13:30:57;;;;;;;4.72;2.90;;;16.60;99.90;;;;;;4986414;28;20046;-64
2022/10/05 13:33:40;;;;;;;5.97;3.42;;;16.60;99.90;;;;;;4968646;28;20476;-64
2022/10/05 13:36:48;;;;;;;5.63;3.97;;;16.60;99.90;;;;;;4986515;28;20401;-66
2022/10/05 13:39:20;;;;;;;6.45;4.25;;;16.60;99.90;;;;;;4986004;28;20421;-64
2022/10/05 13:42:08;;;;;;;5.72;3.42;;;16.70;99.90;;;;;;4986671;28;20133;-64
2022/10/05 13:45:07;;;;;;;5.60;3.88;;;16.70;99.90;;;;;;4986451;28;20053;-64
2022/10/05 13:47:37;;;;;;;5.00;3.30;;;16.70;99.90;;;;;;4986107;28;20038;-64
2022/10/05 13:50:18;;;;;;;5.47;3.80;;;16.80;99.90;;;;;;4986509;28;20086;-66
2022/10/05 13:52:54;;;;;;;5.35;3.38;;;16.80;99.90;;;;;;4985710;28;20046;-64
2022/10/05 13:55:37;;;;;;;3.70;2.88;;;16.90;99.90;;;;;;4984476;28;20065;-64
2022/10/05 13:58:14;;;;;;;7.03;3.90;;;16.90;99.90;;;;;;4985107;28;20052;-64
2022/10/05 14:00:49;;;;;;;5.28;2.92;;;17.00;99.90;;;;;;4968895;28;20050;-66
2022/10/05 14:03:33;;;;;;;6.65;4.15;;;17.00;99.90;;;;;;4985251;28;20119;-65
2022/10/05 14:06:02;;;;;;;4.60;3.33;;;17.00;99.90;;;;;;4980907;28;20084;-64